createdAt,value
2023-07-19T00:01:09.983Z,68.90
2023-07-19T00:03:37.153Z,69.00
2023-07-19T00:06:04.387Z,69.00
2023-07-19T00:08:34.951Z,69.20
2023-07-19T00:11:02.162Z,69.30
2023-07-19T00:13:29.345Z,69.40
2023-07-19T00:15:56.789Z,69.50
2023-07-19T00:18:23.972Z,69.70
2023-07-19T00:20:51.397Z,69.70
2023-07-19T00:23:18.520Z,69.60
2023-07-19T00:25:47.073Z,70.90
2023-07-19T00:28:14.538Z,70.70
2023-07-19T00:30:42.283Z,70.40
2023-07-19T00:33:09.693Z,70.50
2023-07-19T00:35:44.469Z,70.70
2023-07-19T00:38:15.719Z,71.40
2023-07-19T00:40:42.985Z,71.20
2023-07-19T00:43:13.392Z,71.10
2023-07-19T00:45:48.804Z,71.20
2023-07-19T00:48:17.737Z,72.10
2023-07-19T00:50:46.005Z,71.80
2023-07-19T00:53:13.466Z,71.90
2023-07-19T00:55:41.700Z,71.60
2023-07-19T00:58:09.518Z,71.30
2023-07-19T01:00:36.651Z,71.20
2023-07-19T01:03:05.563Z,70.90
2023-07-19T01:05:33.578Z,70.90
2023-07-19T01:08:00.922Z,71.00
2023-07-19T01:10:28.149Z,71.40
2023-07-19T01:13:09.956Z,71.80
2023-07-19T01:15:38.115Z,71.50
2023-07-19T01:18:05.737Z,71.90
2023-07-19T01:20:33.868Z,72.50
2023-07-19T01:23:01.148Z,72.50
2023-07-19T01:25:28.372Z,72.80
2023-07-19T01:27:55.531Z,72.50
2023-07-19T01:30:22.723Z,72.50
2023-07-19T01:32:50.557Z,72.60
2023-07-19T01:35:18.569Z,72.80
2023-07-19T01:37:45.838Z,72.80
2023-07-19T01:40:13.534Z,73.20
2023-07-19T01:42:40.814Z,73.40
2023-07-19T01:45:08.996Z,73.10
2023-07-19T01:47:36.340Z,72.90
2023-07-19T01:50:04.392Z,73.30
2023-07-19T01:52:31.759Z,73.10
2023-07-19T01:54:58.857Z,73.20
2023-07-19T01:57:26.107Z,72.70
2023-07-19T01:59:53.685Z,72.90
2023-07-19T02:02:21.964Z,72.80
2023-07-19T02:04:49.538Z,72.70
2023-07-19T02:07:16.949Z,72.60
2023-07-19T02:09:45.149Z,72.60
2023-07-19T02:12:12.329Z,72.60
2023-07-19T02:14:40.235Z,73.40
2023-07-19T02:17:07.481Z,73.10
2023-07-19T02:19:34.630Z,72.90
2023-07-19T02:22:01.899Z,73.50
2023-07-19T02:24:29.085Z,73.20
2023-07-19T02:26:56.336Z,73.50
2023-07-19T02:29:23.449Z,73.40
2023-07-19T02:31:53.669Z,73.20
2023-07-19T02:34:21.730Z,73.30
2023-07-19T02:36:50.468Z,73.70
2023-07-19T02:39:21.450Z,74.00
2023-07-19T02:41:48.784Z,74.10
2023-07-19T02:44:15.954Z,74.20
2023-07-19T02:46:43.248Z,73.90
2023-07-19T02:49:12.472Z,74.20
2023-07-19T02:51:39.613Z,73.70
2023-07-19T02:54:06.824Z,73.80
2023-07-19T02:56:34.256Z,73.60
2023-07-19T02:59:01.544Z,74.10
2023-07-19T03:01:28.927Z,74.00
2023-07-19T03:03:56.180Z,73.60
2023-07-19T03:06:23.400Z,74.00
2023-07-19T03:08:50.654Z,73.70
2023-07-19T03:11:18.029Z,73.70
2023-07-19T03:13:45.198Z,73.90
2023-07-19T03:16:12.502Z,73.90
2023-07-19T03:18:39.789Z,73.50
2023-07-19T03:21:06.914Z,73.90
2023-07-19T03:23:34.755Z,74.10
2023-07-19T03:26:02.055Z,73.90
2023-07-19T03:28:31.270Z,73.50
2023-07-19T03:30:59.166Z,73.50
2023-07-19T03:33:27.876Z,73.70
2023-07-19T03:35:55.135Z,74.00
2023-07-19T03:38:23.019Z,74.60
2023-07-19T03:40:53.642Z,74.80
2023-07-19T03:43:21.514Z,74.80
2023-07-19T03:45:48.673Z,74.60
2023-07-19T03:48:16.007Z,74.60
2023-07-19T03:50:43.141Z,74.30
2023-07-19T03:53:11.400Z,74.50
2023-07-19T03:55:39.688Z,74.60
2023-07-19T03:58:07.836Z,74.70
2023-07-19T04:00:35.873Z,74.20
2023-07-19T04:03:03.079Z,73.80
2023-07-19T04:05:30.364Z,74.30
2023-07-19T04:08:02.309Z,73.60
2023-07-19T04:10:31.255Z,73.60
2023-07-19T04:12:58.372Z,73.30
2023-07-19T04:15:25.920Z,73.80
2023-07-19T04:17:53.193Z,74.00
2023-07-19T04:20:22.188Z,73.90
2023-07-19T04:22:49.992Z,73.70
2023-07-19T04:25:17.357Z,74.00
2023-07-19T04:27:44.956Z,73.90
2023-07-19T04:30:12.768Z,73.90
2023-07-19T04:32:40.306Z,73.70
2023-07-19T04:35:08.518Z,73.80
2023-07-19T04:37:39.318Z,74.10
2023-07-19T04:40:13.028Z,74.40
2023-07-19T04:42:41.544Z,74.20
2023-07-19T04:45:10.526Z,74.40
2023-07-19T04:47:38.679Z,74.40
2023-07-19T04:50:11.060Z,75.20
2023-07-19T04:52:39.137Z,75.10
2023-07-19T04:55:07.154Z,75.20
2023-07-19T04:57:35.767Z,75.80
2023-07-19T05:00:06.210Z,75.80
2023-07-19T05:02:33.569Z,76.30
2023-07-19T05:05:00.973Z,76.60
2023-07-19T05:07:28.228Z,76.40
2023-07-19T05:09:55.380Z,76.30
2023-07-19T05:12:22.618Z,76.60
2023-07-19T05:14:49.700Z,76.70
2023-07-19T05:17:16.818Z,77.10
2023-07-19T05:19:44.011Z,77.00
2023-07-19T05:22:12.242Z,77.30
2023-07-19T05:24:41.424Z,77.20
2023-07-19T05:27:08.729Z,77.20
2023-07-19T05:29:35.929Z,77.30
2023-07-19T05:32:03.289Z,76.80
2023-07-19T05:34:30.433Z,76.40
2023-07-19T05:36:57.588Z,76.60
2023-07-19T05:39:24.738Z,75.80
2023-07-19T05:41:52.129Z,74.70
2023-07-19T05:44:19.231Z,74.80
2023-07-19T05:46:46.365Z,74.60
2023-07-19T05:49:13.532Z,74.40
2023-07-19T05:51:40.718Z,74.10
2023-07-19T05:54:07.807Z,74.00
2023-07-19T05:56:34.960Z,73.20
2023-07-19T05:59:02.068Z,72.70
2023-07-19T06:01:32.392Z,73.30
2023-07-19T06:04:01.750Z,71.80
2023-07-19T06:06:28.915Z,71.60
2023-07-19T06:08:56.072Z,71.40
2023-07-19T06:11:23.434Z,70.70
2023-07-19T06:13:51.249Z,72.30
2023-07-19T06:16:18.479Z,71.60
2023-07-19T06:18:45.651Z,67.90
2023-07-19T06:21:13.083Z,70.80
2023-07-19T06:23:40.701Z,68.60
2023-07-19T06:26:07.859Z,68.50
2023-07-19T06:28:36.418Z,70.00
2023-07-19T06:31:04.040Z,69.20
2023-07-19T06:33:31.444Z,68.70
2023-07-19T06:35:59.341Z,68.20
2023-07-19T06:38:27.274Z,69.60
2023-07-19T06:40:54.352Z,69.00
2023-07-19T06:43:21.562Z,69.30
2023-07-19T06:45:48.934Z,67.70
2023-07-19T06:48:16.233Z,67.90
2023-07-19T06:50:43.445Z,68.10
2023-07-19T06:53:10.580Z,68.10
2023-07-19T06:55:39.625Z,69.20
2023-07-19T06:58:06.745Z,68.20
2023-07-19T07:00:33.927Z,66.40
2023-07-19T07:03:01.518Z,66.60
2023-07-19T07:05:28.753Z,67.30
2023-07-19T07:07:55.992Z,66.00
2023-07-19T07:10:23.171Z,68.10
2023-07-19T07:12:50.450Z,66.00
2023-07-19T07:15:17.626Z,66.80
2023-07-19T07:17:45.654Z,68.20
2023-07-19T07:20:12.774Z,65.00
2023-07-19T07:22:39.987Z,65.90
2023-07-19T07:25:07.376Z,66.70
2023-07-19T07:27:35.564Z,67.10
2023-07-19T07:30:02.875Z,66.80
2023-07-19T07:32:30.073Z,67.90
2023-07-19T07:34:57.322Z,64.90
2023-07-19T07:37:24.579Z,65.00
2023-07-19T07:39:51.722Z,64.10
2023-07-19T07:42:21.423Z,62.70
2023-07-19T07:44:48.946Z,62.90
2023-07-19T07:47:16.413Z,63.90
2023-07-19T07:49:43.675Z,63.30
2023-07-19T07:52:12.578Z,64.80
2023-07-19T07:54:39.752Z,64.80
2023-07-19T07:57:07.431Z,60.70
2023-07-19T07:59:35.155Z,59.60
2023-07-19T08:02:05.310Z,59.50
2023-07-19T08:04:34.156Z,62.20
2023-07-19T08:07:01.455Z,61.80
2023-07-19T08:09:29.022Z,61.60
2023-07-19T08:11:56.420Z,60.60
2023-07-19T08:14:23.607Z,59.70
2023-07-19T08:16:55.191Z,59.20
2023-07-19T08:19:22.364Z,58.60
2023-07-19T08:21:49.544Z,60.50
2023-07-19T08:24:16.974Z,58.90
2023-07-19T08:26:44.307Z,59.30
2023-07-19T08:29:12.334Z,59.50
2023-07-19T08:31:39.439Z,58.90
2023-07-19T08:34:06.804Z,55.70
2023-07-19T08:36:34.087Z,55.40
2023-07-19T08:39:01.329Z,57.70
2023-07-19T08:41:33.324Z,55.70
2023-07-19T08:44:01.176Z,54.80
2023-07-19T08:46:28.655Z,54.50
2023-07-19T08:48:55.990Z,54.40
2023-07-19T08:51:25.530Z,53.20
2023-07-19T08:53:53.081Z,54.50
2023-07-19T08:56:22.214Z,53.70
2023-07-19T08:58:49.355Z,53.90
2023-07-19T09:01:16.599Z,54.20
2023-07-19T09:03:43.987Z,53.90
2023-07-19T09:06:11.302Z,54.50
2023-07-19T09:08:41.370Z,55.00
2023-07-19T09:11:09.223Z,52.70
2023-07-19T09:13:39.272Z,50.40
2023-07-19T09:16:08.074Z,50.80
2023-07-19T09:18:39.947Z,50.80
2023-07-19T09:21:07.662Z,51.60
2023-07-19T09:23:38.897Z,52.30
2023-07-19T09:26:07.236Z,52.70
2023-07-19T09:28:36.093Z,53.00
2023-07-19T09:31:24.803Z,53.50
2023-07-19T09:33:57.459Z,53.90
2023-07-19T09:36:25.042Z,55.10
2023-07-19T09:38:54.440Z,54.50
2023-07-19T09:41:23.735Z,53.30
2023-07-19T09:43:52.784Z,53.70
2023-07-19T09:46:20.788Z,55.00
2023-07-19T09:48:48.136Z,56.30
2023-07-19T09:51:18.161Z,54.60
2023-07-19T09:53:48.903Z,54.30
2023-07-19T09:56:16.436Z,54.50
2023-07-19T09:58:44.216Z,56.00
2023-07-19T10:01:11.912Z,56.80
2023-07-19T10:03:39.167Z,55.00
2023-07-19T10:06:07.223Z,56.20
2023-07-19T10:08:34.555Z,56.00
2023-07-19T10:11:02.455Z,57.30
2023-07-19T10:13:31.414Z,56.20
2023-07-19T10:15:58.886Z,55.60
2023-07-19T10:18:26.545Z,55.30
2023-07-19T10:21:06.891Z,56.40
2023-07-19T10:23:35.698Z,57.20
2023-07-19T10:26:11.535Z,57.50
2023-07-19T10:28:39.649Z,57.20
2023-07-19T10:31:28.158Z,56.50
2023-07-19T10:33:57.254Z,57.20
2023-07-19T10:36:25.126Z,57.80
2023-07-19T10:38:52.726Z,55.60
2023-07-19T10:41:21.604Z,57.40
2023-07-19T10:43:52.763Z,57.90
2023-07-19T10:46:23.577Z,56.00
2023-07-19T10:48:52.339Z,56.60
2023-07-19T10:51:21.543Z,56.90
2023-07-19T10:54:00.530Z,56.70
2023-07-19T10:56:29.244Z,57.10
2023-07-19T10:59:01.466Z,56.80
2023-07-19T11:01:31.494Z,57.70
2023-07-19T11:04:05.155Z,58.20
2023-07-19T11:06:39.195Z,57.90
2023-07-19T11:09:11.331Z,59.90
2023-07-19T11:11:40.205Z,58.10
2023-07-19T11:14:07.897Z,57.40
2023-07-19T11:16:35.998Z,52.10
2023-07-19T11:19:03.373Z,52.60
2023-07-19T11:21:30.628Z,52.40
2023-07-19T11:23:57.764Z,52.70
2023-07-19T11:26:25.006Z,52.90
2023-07-19T11:28:59.565Z,52.00
2023-07-19T11:31:39.870Z,54.40
2023-07-19T11:34:20.416Z,52.80
2023-07-19T11:36:48.360Z,53.70
2023-07-19T11:39:21.715Z,52.20
2023-07-19T11:41:49.966Z,51.90
2023-07-19T11:44:23.378Z,52.20
2023-07-19T11:46:53.515Z,51.50
2023-07-19T11:49:20.944Z,52.00
2023-07-19T11:51:48.269Z,52.80
2023-07-19T11:54:16.460Z,52.10
2023-07-19T11:56:43.900Z,51.80
2023-07-19T11:59:11.177Z,51.70
2023-07-19T12:01:38.380Z,50.90
2023-07-19T12:04:05.720Z,50.20
2023-07-19T12:06:33.059Z,49.40
2023-07-19T12:09:00.508Z,50.70
2023-07-19T12:11:27.878Z,50.70
2023-07-19T12:13:58.548Z,50.70
2023-07-19T12:16:27.028Z,50.50
2023-07-19T12:18:54.275Z,50.30
2023-07-19T12:21:21.685Z,51.00
2023-07-19T12:26:32.298Z,52.40
2023-07-19T12:28:59.973Z,52.00
2023-07-19T12:31:27.355Z,52.60
2023-07-19T12:33:54.865Z,52.10
2023-07-19T12:36:22.189Z,52.80
2023-07-19T12:38:49.654Z,51.30
2023-07-19T12:41:17.777Z,52.40
2023-07-19T12:43:45.016Z,52.10
2023-07-19T12:46:12.205Z,50.70
2023-07-19T12:48:40.029Z,49.40
2023-07-19T12:51:08.197Z,50.70
2023-07-19T12:53:38.456Z,50.30
2023-07-19T12:56:07.035Z,51.70
2023-07-19T12:58:34.209Z,50.90
2023-07-19T13:01:01.430Z,49.30
2023-07-19T13:03:28.819Z,50.40
2023-07-19T13:05:56.043Z,50.00
2023-07-19T13:08:23.124Z,50.30
2023-07-19T13:10:50.910Z,51.90
2023-07-19T13:13:18.131Z,48.90
2023-07-19T13:15:45.301Z,49.40
2023-07-19T13:18:12.561Z,48.50
2023-07-19T13:20:39.738Z,48.40
2023-07-19T13:23:06.999Z,47.90
2023-07-19T13:25:34.242Z,46.60
2023-07-19T13:28:01.521Z,49.30
2023-07-19T13:30:28.751Z,46.90
2023-07-19T13:32:56.266Z,46.90
2023-07-19T13:40:23.548Z,48.20
2023-07-19T13:42:50.660Z,47.80
2023-07-19T13:45:18.434Z,47.70
2023-07-19T13:47:45.663Z,48.40
2023-07-19T13:50:12.826Z,48.10
2023-07-19T13:52:39.985Z,48.10
2023-07-19T13:55:07.812Z,50.20
2023-07-19T13:57:34.919Z,49.70
2023-07-19T14:00:02.185Z,49.10
2023-07-19T14:02:35.161Z,48.40
2023-07-19T14:05:02.502Z,48.30
2023-07-19T14:07:29.598Z,48.00
2023-07-19T14:09:57.155Z,48.20
2023-07-19T14:12:25.867Z,47.50
2023-07-19T14:14:53.277Z,49.00
2023-07-19T14:17:21.376Z,49.30
2023-07-19T14:19:48.569Z,49.40
2023-07-19T14:22:15.676Z,52.10
2023-07-19T14:24:43.018Z,51.60
2023-07-19T14:27:10.744Z,51.50
2023-07-19T14:29:38.141Z,51.10
2023-07-19T14:32:06.056Z,52.10
2023-07-19T14:34:38.774Z,51.90
2023-07-19T14:37:07.077Z,52.40
2023-07-19T14:39:34.174Z,52.20
2023-07-19T14:42:01.641Z,50.80
2023-07-19T14:44:28.808Z,49.80
2023-07-19T14:46:58.214Z,48.90
2023-07-19T14:49:25.785Z,48.60
2023-07-19T14:51:53.106Z,49.30
2023-07-19T14:54:20.292Z,51.00
2023-07-19T14:56:47.627Z,49.20
2023-07-19T14:59:14.818Z,49.90
2023-07-19T15:01:42.702Z,50.40
2023-07-19T15:04:10.260Z,48.90
2023-07-19T15:06:37.785Z,51.00
2023-07-19T15:09:04.950Z,48.60
2023-07-19T15:11:32.121Z,49.60
2023-07-19T15:13:59.321Z,48.70
2023-07-19T15:16:26.801Z,49.70
2023-07-19T15:18:54.213Z,49.10
2023-07-19T15:21:21.449Z,49.80
2023-07-19T15:23:50.255Z,50.60
2023-07-19T15:28:48.127Z,50.50
2023-07-19T15:31:15.797Z,51.20
2023-07-19T15:33:43.082Z,49.90
2023-07-19T15:36:10.248Z,50.90
2023-07-19T15:38:41.499Z,52.00
2023-07-19T15:41:15.633Z,51.10
2023-07-19T15:43:46.420Z,50.10
2023-07-19T15:46:14.006Z,48.90
2023-07-19T15:48:41.269Z,49.30
2023-07-19T15:51:08.715Z,50.30
2023-07-19T15:53:39.389Z,50.10
2023-07-19T15:56:08.001Z,50.10
2023-07-19T15:58:36.229Z,49.20
2023-07-19T16:01:07.309Z,50.00
2023-07-19T16:03:36.306Z,49.80
2023-07-19T16:06:04.390Z,49.80
2023-07-19T16:08:32.303Z,49.60
2023-07-19T16:10:59.697Z,51.10
2023-07-19T16:13:26.845Z,51.30
2023-07-19T16:15:53.985Z,50.00
2023-07-19T16:18:21.866Z,50.50
2023-07-19T16:20:49.154Z,51.30
2023-07-19T16:23:16.326Z,52.10
2023-07-19T16:25:43.496Z,51.70
2023-07-19T16:28:10.700Z,53.00
2023-07-19T16:30:37.975Z,53.20
2023-07-19T16:33:05.269Z,53.40
2023-07-19T16:35:32.941Z,52.70
2023-07-19T16:38:00.339Z,52.40
2023-07-19T16:40:29.023Z,52.40
2023-07-19T16:42:56.273Z,52.20
2023-07-19T16:45:25.168Z,51.70
2023-07-19T16:47:58.052Z,51.80
2023-07-19T16:50:26.847Z,51.50
2023-07-19T16:53:14.075Z,51.60
2023-07-19T16:55:41.666Z,51.20
2023-07-19T16:58:08.982Z,52.40
2023-07-19T17:00:36.245Z,52.20
2023-07-19T17:03:04.544Z,53.20
2023-07-19T17:05:35.296Z,53.30
2023-07-19T17:08:04.737Z,52.40
2023-07-19T17:10:33.542Z,53.60
2023-07-19T17:13:05.962Z,52.90
2023-07-19T17:15:37.047Z,52.80
2023-07-19T17:18:06.655Z,52.90
2023-07-19T17:20:35.069Z,53.20
2023-07-19T17:23:03.546Z,53.70
2023-07-19T17:25:30.812Z,53.50
2023-07-19T17:27:58.039Z,53.20
2023-07-19T17:30:25.141Z,53.70
2023-07-19T17:32:52.417Z,54.50
2023-07-19T17:35:19.736Z,55.10
2023-07-19T17:37:47.165Z,54.40
2023-07-19T17:40:14.975Z,54.60
2023-07-19T17:42:42.488Z,54.60
2023-07-19T17:45:10.585Z,54.60
2023-07-19T17:47:37.825Z,54.70
2023-07-19T17:50:08.055Z,54.50
2023-07-19T17:52:35.928Z,55.00
2023-07-19T17:55:03.872Z,55.50
2023-07-19T17:57:31.617Z,55.40
2023-07-19T17:59:58.809Z,56.80
2023-07-19T18:02:26.204Z,55.00
2023-07-19T18:04:54.118Z,55.30
2023-07-19T18:07:21.316Z,55.50
2023-07-19T18:09:49.155Z,54.90
2023-07-19T18:12:16.389Z,54.80
2023-07-19T18:14:44.599Z,55.30
2023-07-19T18:17:11.942Z,55.50
2023-07-19T18:19:39.098Z,55.60
2023-07-19T18:22:06.412Z,56.20
2023-07-19T18:24:33.605Z,56.90
2023-07-19T18:27:01.493Z,56.20
2023-07-19T18:29:28.678Z,56.60
2023-07-19T18:31:56.099Z,56.50
2023-07-19T18:34:23.270Z,56.00
2023-07-19T18:36:50.664Z,57.20
2023-07-19T18:39:18.032Z,57.10
2023-07-19T18:41:45.340Z,57.90
2023-07-19T18:44:12.538Z,56.60
2023-07-19T18:46:39.841Z,57.30
2023-07-19T18:49:07.003Z,59.10
2023-07-19T18:51:34.127Z,59.00
2023-07-19T18:54:02.023Z,58.90
2023-07-19T18:56:30.675Z,58.60
2023-07-19T18:58:57.922Z,59.10
2023-07-19T19:01:25.349Z,59.70
2023-07-19T19:03:54.937Z,60.10
2023-07-19T19:06:23.183Z,60.20
2023-07-19T19:08:50.405Z,60.30
2023-07-19T19:11:18.694Z,59.30
2023-07-19T19:13:45.941Z,59.70
2023-07-19T19:16:13.259Z,61.20
2023-07-19T19:18:40.382Z,63.80
2023-07-19T19:21:07.806Z,63.90
2023-07-19T19:23:35.331Z,65.70
2023-07-19T19:26:02.532Z,68.10
2023-07-19T19:28:31.346Z,69.30
2023-07-19T19:31:00.117Z,70.10
2023-07-19T19:33:27.389Z,71.00
2023-07-19T19:35:54.611Z,72.60
2023-07-19T19:38:26.738Z,73.30
2023-07-19T19:40:58.375Z,74.00
2023-07-19T19:43:25.719Z,74.90
2023-07-19T19:45:54.332Z,75.60
2023-07-19T19:48:21.622Z,75.60
2023-07-19T19:50:49.456Z,75.20
2023-07-19T19:53:17.026Z,74.20
2023-07-19T19:58:14.342Z,75.00
2023-07-19T20:00:42.206Z,74.40
2023-07-19T20:08:10.157Z,74.30
2023-07-19T20:10:38.079Z,73.60
2023-07-19T20:13:06.630Z,74.40
2023-07-19T20:15:52.449Z,73.90
2023-07-19T20:18:22.795Z,74.50
2023-07-19T20:20:50.431Z,75.60
2023-07-19T20:23:17.637Z,75.80
2023-07-19T20:26:02.728Z,75.60
2023-07-19T20:28:34.036Z,75.90
2023-07-19T20:33:34.502Z,75.80
2023-07-19T20:43:32.721Z,75.40
2023-07-19T20:46:00.478Z,75.80
2023-07-19T20:48:34.735Z,75.70
2023-07-19T20:51:04.295Z,75.90
2023-07-19T20:53:31.484Z,75.80
2023-07-19T20:55:58.608Z,75.90
2023-07-19T20:58:25.823Z,75.50
2023-07-19T21:00:56.743Z,75.80
2023-07-19T21:03:25.625Z,75.90
2023-07-19T21:05:52.836Z,76.10
2023-07-19T21:08:20.028Z,76.00
2023-07-19T21:10:48.326Z,76.60
2023-07-19T21:13:16.154Z,76.70
2023-07-19T21:15:43.756Z,76.70
2023-07-19T21:18:11.677Z,76.80
2023-07-19T21:20:38.954Z,76.90
2023-07-19T21:23:06.512Z,77.40
2023-07-19T21:25:34.125Z,77.30
2023-07-19T21:28:01.640Z,77.10
2023-07-19T21:30:28.909Z,77.10
2023-07-19T21:32:56.493Z,77.60
2023-07-19T21:35:24.005Z,77.60
2023-07-19T21:37:51.667Z,77.20
2023-07-19T21:40:18.966Z,77.40
2023-07-19T21:42:46.099Z,77.80
2023-07-19T21:45:13.940Z,77.90
2023-07-19T21:47:41.293Z,77.70
2023-07-19T21:50:08.876Z,78.20
2023-07-19T21:52:36.017Z,78.00
2023-07-19T21:55:03.223Z,77.70
2023-07-19T21:57:30.362Z,77.50
2023-07-19T21:59:59.354Z,77.50
2023-07-19T22:02:26.926Z,77.90
2023-07-19T22:04:54.494Z,77.70
2023-07-19T22:07:21.718Z,78.00
2023-07-19T22:09:49.045Z,77.90
2023-07-19T22:12:16.528Z,77.70
2023-07-19T22:14:48.115Z,77.70
2023-07-19T22:17:21.411Z,77.80
2023-07-19T22:19:48.545Z,77.50
2023-07-19T22:22:15.697Z,77.70
2023-07-19T22:24:42.846Z,77.60
2023-07-19T22:27:10.086Z,77.90
2023-07-19T22:29:37.201Z,78.10
2023-07-19T22:32:04.858Z,78.20
2023-07-19T22:34:31.970Z,77.80
2023-07-19T22:36:59.122Z,77.80
2023-07-19T22:39:26.189Z,78.00
2023-07-19T22:41:53.390Z,78.10
2023-07-19T22:44:20.443Z,77.80
2023-07-19T22:46:48.032Z,77.80
2023-07-19T22:49:15.477Z,77.90
2023-07-19T22:51:42.653Z,77.70
2023-07-19T22:54:10.114Z,77.70
2023-07-19T22:56:37.291Z,77.80
2023-07-19T22:59:04.552Z,77.70
2023-07-19T23:01:31.689Z,77.90
2023-07-19T23:03:58.941Z,78.20
2023-07-19T23:06:26.074Z,77.80
2023-07-19T23:08:53.218Z,77.90
2023-07-19T23:11:20.340Z,77.70
2023-07-19T23:13:47.560Z,77.70
2023-07-19T23:16:14.870Z,77.70
2023-07-19T23:18:42.027Z,77.70
2023-07-19T23:21:09.157Z,77.40
2023-07-19T23:23:36.391Z,77.60
2023-07-19T23:26:03.465Z,77.50
2023-07-19T23:28:31.233Z,77.60
2023-07-19T23:30:58.312Z,77.70
2023-07-19T23:33:25.477Z,77.70
2023-07-19T23:35:52.788Z,77.90
2023-07-19T23:38:19.995Z,77.80
2023-07-19T23:40:49.130Z,77.70
2023-07-19T23:43:18.567Z,77.70
2023-07-19T23:45:45.745Z,77.50
2023-07-19T23:48:12.843Z,77.90
2023-07-19T23:50:40.090Z,77.90
2023-07-19T23:53:07.424Z,78.20
2023-07-19T23:55:34.662Z,78.20
2023-07-19T23:58:01.849Z,78.20
